TAF Text Data
IDs:
Format:
Raw Decoded Include METAR

Data at: 0721 UTC 24 Jan 2019

KDMN 240653Z AUTO 27010KT 10SM CLR 04/M13 A3009 RMK AO2 SLP166 T00441128 401171078

KDMN 240537Z 2406/2506 31006KT P6SM SKC
  FM241200 01010KT P6SM SKC
  FM250100 VRB05KT P6SM SKC